Time;durP1;ratioP1;P1;durP2;ratioP2;P2;SDS_P1;SDS_P2;PMS_P1;PMS_P2;Temp;Humidity;BMP_temperature;BMP_pressure;BME280_temperature;BME280_humidity;BME280_pressure;Samples;Min_cycle;Max_cycle;Signal;HPM_P1;HPM_P2
2022/01/12 00:00:50;;;;;;;11.65;7.00;;;;;;;-2.86;80.36;95194.34;4972573;28;20210;-75
2022/01/12 00:03:17;;;;;;;11.30;6.20;;;;;;;-2.86;80.62;95189.06;4985533;28;20241;-75
2022/01/12 00:05:44;;;;;;;10.60;6.28;;;;;;;-2.96;80.91;95186.97;4982662;28;20595;-75
2022/01/12 00:08:11;;;;;;;12.50;6.88;;;;;;;-2.97;82.15;95193.31;4978829;28;20205;-74
2022/01/12 00:10:39;;;;;;;5.80;2.47;;;;;;;-2.95;81.30;95204.50;4980705;28;20206;-74
2022/01/12 00:13:06;;;;;;;5.72;2.92;;;;;;;-2.86;81.36;95197.81;4985348;28;20707;-74
2022/01/12 00:15:34;;;;;;;5.05;2.83;;;;;;;-2.80;81.93;95200.59;4983259;28;20220;-74
2022/01/12 00:18:01;;;;;;;8.75;3.40;;;;;;;-2.73;81.31;95206.59;4973935;28;20213;-74
2022/01/12 00:20:28;;;;;;;5.82;2.95;;;;;;;-2.67;81.51;95195.06;4983076;28;20206;-74
2022/01/12 00:22:55;;;;;;;10.95;3.20;;;;;;;-2.57;82.11;95203.22;4986726;28;20225;-75
2022/01/12 00:25:32;;;;;;;8.48;3.88;;;;;;;-2.49;81.51;95202.09;4983486;28;20201;-75
2022/01/12 00:33:29;;;;;;;7.32;2.80;;;;;;;-2.54;80.56;95216.84;4983736;28;20199;-74
2022/01/12 00:35:58;;;;;;;5.03;2.92;;;;;;;-2.72;81.07;95213.50;4978605;28;20557;-74
2022/01/12 00:38:29;;;;;;;5.47;3.13;;;;;;;-2.75;80.40;95219.28;4979669;28;20284;-74
2022/01/12 00:40:57;;;;;;;8.38;4.18;;;;;;;-2.74;81.00;95226.19;4985159;28;20199;-74
2022/01/12 00:43:29;;;;;;;19.70;6.43;;;;;;;-2.73;81.16;95222.50;4984565;28;20264;-74
2022/01/12 00:45:57;;;;;;;14.50;5.72;;;;;;;-2.71;82.14;95209.81;4979142;28;20194;-74
2022/01/12 00:48:24;;;;;;;9.52;4.03;;;;;;;-2.54;81.73;95210.72;4991376;28;20244;-73
2022/01/12 00:50:51;;;;;;;41.17;14.95;;;;;;;-2.59;81.29;95218.56;4983573;28;20226;-74
2022/01/12 00:53:18;;;;;;;8.85;4.70;;;;;;;-2.59;81.77;95213.25;4984988;28;20209;-74
2022/01/12 00:55:45;;;;;;;16.40;5.43;;;;;;;-2.60;80.39;95211.69;4979968;28;20213;-74
2022/01/12 00:58:13;;;;;;;5.68;3.45;;;;;;;-2.66;80.54;95207.28;4977913;28;20207;-74
2022/01/12 01:00:40;;;;;;;4.35;3.10;;;;;;;-2.73;80.26;95206.59;4991491;28;20293;-74
2022/01/12 01:03:09;;;;;;;10.02;3.90;;;;;;;-2.52;81.57;95214.78;4991032;28;20226;-74
2022/01/12 01:05:36;;;;;;;11.80;2.88;;;;;;;-2.23;80.75;95202.41;4991161;28;20213;-75
2022/01/12 01:08:03;;;;;;;7.80;3.75;;;;;;;-2.11;80.69;95214.84;4978307;28;20646;-74
2022/01/12 01:10:45;;;;;;;11.02;4.40;;;;;;;-2.19;79.94;95213.38;4991514;28;20332;-74
2022/01/12 01:13:13;;;;;;;6.07;2.97;;;;;;;-2.19;78.55;95208.84;4977994;28;20277;-74
2022/01/12 01:15:56;;;;;;;3.92;1.95;;;;;;;-2.32;78.29;95214.41;4979452;28;20203;-74
2022/01/12 01:26:37;;;;;;;6.78;3.28;;;;;;;-2.17;79.56;95206.75;4983706;28;20196;-75
2022/01/12 01:29:04;;;;;;;9.20;3.70;;;;;;;-2.02;80.05;95219.53;4994979;28;20264;-75
2022/01/12 01:31:33;;;;;;;10.00;4.75;;;;;;;-1.79;78.74;95213.38;4995176;28;20210;-74
2022/01/12 01:34:08;;;;;;;7.20;3.15;;;;;;;-1.64;79.23;95210.22;4991609;28;20706;-74
2022/01/12 01:36:37;;;;;;;12.77;4.53;;;;;;;-1.62;78.53;95213.41;4985771;28;20314;-74
2022/01/12 01:39:05;;;;;;;10.27;4.25;;;;;;;-1.50;79.50;95211.50;4994363;28;20249;-74
2022/01/12 01:41:32;;;;;;;10.38;4.10;;;;;;;-1.62;78.22;95214.22;4983339;28;20202;-74
2022/01/12 01:44:33;;;;;;;8.60;3.60;;;;;;;-1.87;76.61;95213.72;4987514;28;20234;-74
2022/01/12 01:55:20;;;;;;;6.80;2.80;;;;;;;-2.35;79.00;95222.84;4989391;28;20669;-75
2022/01/12 01:57:48;;;;;;;3.75;2.10;;;;;;;-2.53;77.49;95220.31;4986532;28;20202;-74
2022/01/12 02:00:18;;;;;;;3.00;1.73;;;;;;;-2.64;77.63;95223.78;4980872;28;20205;-73
2022/01/12 02:02:46;;;;;;;10.35;5.90;;;;;;;-2.75;79.45;95225.38;4981766;28;20214;-74
2022/01/12 02:05:15;;;;;;;3.13;1.75;;;;;;;-2.71;79.02;95226.53;4987520;28;20210;-74
2022/01/12 02:07:43;;;;;;;3.40;1.83;;;;;;;-2.65;78.92;95230.09;4987888;28;20206;-74
2022/01/12 02:10:10;;;;;;;2.55;2.35;;;;;;;-2.73;78.38;95238.41;4981414;28;20210;-73
2022/01/12 02:12:37;;;;;;;1.65;1.38;;;;;;;-2.77;78.60;95231.94;4981149;28;20203;-74
2022/01/12 02:15:14;;;;;;;9.55;3.13;;;;;;;-2.69;79.54;95236.91;4993534;28;20616;-74
2022/01/12 02:17:53;;;;;;;1.88;1.00;;;;;;;-2.76;77.83;95233.56;4980940;28;20195;-74
2022/01/12 02:35:11;;;;;;;13.15;4.85;;;;;;;-2.79;79.10;95245.44;4983558;28;20194;-73
2022/01/12 02:37:16;;;;;;;5.32;2.40;;;;;;;-2.97;79.85;95270.16;4975083;28;20716;-75
2022/01/12 02:39:53;;;;;;;7.50;3.13;;;;;;;-2.87;79.57;95267.75;4983708;28;20205;-75
2022/01/12 02:42:20;;;;;;;9.95;4.70;;;;;;;-2.80;79.13;95264.22;4993421;28;20193;-74
2022/01/12 02:55:48;;;;;;;7.78;2.40;;;;;;;-2.39;76.45;95274.72;4992997;28;20370;-74
2022/01/12 02:58:14;;;;;;;7.10;3.63;;;;;;;-2.71;77.46;95276.09;4992815;28;20205;-73
2022/01/12 03:01:02;;;;;;;4.25;3.33;;;;;;;-2.94;77.95;95282.97;4992505;28;20248;-72
2022/01/12 03:03:32;;;;;;;5.45;2.00;;;;;;;-3.03;78.83;95292.28;4987208;28;20672;-74
2022/01/12 03:06:02;;;;;;;6.55;3.10;;;;;;;-3.08;78.63;95284.19;4986103;28;20201;-73
2022/01/12 03:08:36;;;;;;;8.80;3.47;;;;;;;-3.08;78.74;95302.75;4979718;28;20254;-75
2022/01/12 03:11:05;;;;;;;7.53;3.40;;;;;;;-2.99;79.36;95301.38;4992706;28;20201;-75
2022/01/12 03:13:32;;;;;;;7.35;2.88;;;;;;;-2.81;80.23;95299.72;4985137;28;20209;-74
2022/01/12 03:15:59;;;;;;;8.25;3.50;;;;;;;-2.88;79.87;95300.63;4985187;28;20300;-75
2022/01/12 03:18:26;;;;;;;6.43;2.33;;;;;;;-2.89;79.35;95309.63;4980846;28;20236;-74
2022/01/12 03:20:53;;;;;;;4.40;2.40;;;;;;;-2.98;79.66;95316.25;4979491;28;20293;-73
2022/01/12 03:23:20;;;;;;;4.82;2.88;;;;;;;-2.84;79.86;95316.06;4992227;28;20209;-73
2022/01/12 03:25:49;;;;;;;9.52;3.72;;;;;;;-2.81;79.79;95316.41;4979066;28;20570;-76
2022/01/12 03:28:17;;;;;;;4.25;2.88;;;;;;;-2.52;79.27;95314.75;4984043;28;20233;-74
2022/01/12 03:30:53;;;;;;;6.88;2.83;;;;;;;-2.51;79.06;95313.72;4985867;28;20225;-74
2022/01/12 03:33:34;;;;;;;5.13;2.97;;;;;;;-2.70;78.75;95325.44;4982966;28;20817;-73
2022/01/12 03:36:26;;;;;;;8.80;3.75;;;;;;;-2.86;78.62;95316.28;4979151;28;20692;-74
2022/01/12 03:38:55;;;;;;;5.35;2.97;;;;;;;-2.88;79.52;95327.13;4979460;28;21004;-73
2022/01/12 03:41:22;;;;;;;8.85;3.63;;;;;;;-2.71;79.77;95329.09;4982637;28;20206;-73
2022/01/12 03:43:51;;;;;;;6.10;3.50;;;;;;;-2.54;79.32;95322.13;4986220;28;20229;-74
2022/01/12 03:46:20;;;;;;;7.30;3.22;;;;;;;-2.41;78.20;95329.84;4991518;28;20194;-74
2022/01/12 03:48:47;;;;;;;10.73;3.30;;;;;;;-2.59;77.63;95329.94;4984361;28;20229;-74
2022/01/12 03:51:14;;;;;;;6.68;3.05;;;;;;;-2.73;77.49;95331.22;4990524;28;20198;-74
2022/01/12 03:53:42;;;;;;;7.15;3.92;;;;;;;-2.47;78.36;95338.75;4988091;28;20205;-74
2022/01/12 03:56:09;;;;;;;7.47;3.97;;;;;;;-2.58;76.95;95347.47;4983584;28;20571;-74
2022/01/12 03:58:35;;;;;;;5.65;2.70;;;;;;;-2.65;76.62;95352.06;4979368;28;20209;-74
2022/01/12 04:01:04;;;;;;;5.88;2.72;;;;;;;-2.77;76.71;95348.59;4980217;28;20206;-75
2022/01/12 04:03:36;;;;;;;5.45;2.75;;;;;;;-2.84;77.47;95350.50;4991063;28;20201;-75
2022/01/12 04:08:53;;;;;;;7.65;3.95;;;;;;;-2.50;77.93;95360.41;4944483;28;20753;-75
2022/01/12 04:11:20;;;;;;;4.30;2.67;;;;;;;-2.38;75.73;95363.06;4991606;28;20197;-75
2022/01/12 04:13:49;;;;;;;6.55;3.00;;;;;;;-2.20;76.64;95377.06;4991756;28;20201;-74
2022/01/12 04:16:18;;;;;;;5.05;3.33;;;;;;;-2.35;76.21;95381.19;4978356;28;20237;-74
2022/01/12 04:18:45;;;;;;;5.25;2.60;;;;;;;-2.59;74.40;95380.31;4980477;28;20598;-75
2022/01/12 04:21:13;;;;;;;6.55;3.17;;;;;;;-2.72;76.37;95383.16;4989417;28;20210;-75
2022/01/12 04:23:40;;;;;;;2.15;1.45;;;;;;;-2.75;76.33;95394.25;4991299;28;20228;-74
2022/01/12 04:26:10;;;;;;;6.72;3.67;;;;;;;-2.81;76.98;95392.47;4991257;28;20236;-75
2022/01/12 04:28:39;;;;;;;7.55;3.05;;;;;;;-2.84;76.98;95395.56;4991301;28;20715;-76
2022/01/12 04:31:07;;;;;;;5.32;2.35;;;;;;;-2.84;76.43;95398.22;4991588;28;20213;-75
2022/01/12 04:33:36;;;;;;;3.88;1.83;;;;;;;-2.88;75.90;95401.34;4991666;28;20209;-73
2022/01/12 04:36:05;;;;;;;5.55;2.13;;;;;;;-3.08;76.64;95402.63;4978958;28;20849;-75
2022/01/12 04:38:34;;;;;;;8.52;3.05;;;;;;;-3.15;77.10;95394.78;4991528;28;20206;-74
2022/01/12 04:41:02;;;;;;;5.60;2.22;;;;;;;-3.13;76.73;95407.78;4991741;28;20338;-78
2022/01/12 04:43:29;;;;;;;5.40;2.58;;;;;;;-3.17;77.05;95402.13;4978255;28;20242;-76
2022/01/12 04:49:08;;;;;;;5.70;2.97;;;;;;;-3.20;77.20;95407.88;4979023;28;20233;-73
2022/01/12 04:51:37;;;;;;;6.63;2.72;;;;;;;-3.13;77.39;95408.59;4990004;28;20248;-75
2022/01/12 04:54:10;;;;;;;8.65;3.60;;;;;;;-2.99;77.74;95404.72;4980389;28;20213;-74
2022/01/12 04:56:39;;;;;;;7.28;2.58;;;;;;;-2.91;78.77;95412.41;4978233;28;20202;-74
2022/01/12 04:59:06;;;;;;;2.42;2.03;;;;;;;-3.05;76.98;95416.25;4994832;28;20209;-73
2022/01/12 05:01:36;;;;;;;3.78;1.80;;;;;;;-3.15;77.10;95413.31;4995287;28;20216;-74
2022/01/12 05:07:09;;;;;;;7.53;3.40;;;;;;;-3.37;77.53;95428.03;4994217;28;20208;-73
2022/01/12 05:10:01;;;;;;;6.60;2.30;;;;;;;-3.37;76.87;95428.03;4992600;28;20566;-73
2022/01/12 05:12:52;;;;;;;11.80;6.53;;;;;;;-3.34;78.68;95432.91;4987424;28;20194;-76
2022/01/12 05:15:26;;;;;;;11.82;5.93;;;;;;;-3.19;78.66;95438.63;4975366;28;20205;-73
2022/01/12 05:17:53;;;;;;;11.85;6.35;;;;;;;-3.16;76.87;95448.78;4992025;28;20309;-74
2022/01/12 05:20:22;;;;;;;11.23;6.38;;;;;;;-3.16;77.13;95451.44;4983725;28;20708;-75
2022/01/12 05:22:49;;;;;;;12.07;6.82;;;;;;;-3.15;77.14;95461.00;4978635;28;20230;-74
2022/01/12 05:25:18;;;;;;;10.50;6.10;;;;;;;-3.28;76.92;95447.91;4981957;28;20234;-74
2022/01/12 05:27:45;;;;;;;9.45;5.47;;;;;;;-3.36;76.94;95456.94;4974823;28;20632;-74
2022/01/12 05:30:13;;;;;;;9.80;5.18;;;;;;;-3.43;76.55;95466.00;4975318;28;20210;-74
2022/01/12 05:32:41;;;;;;;9.75;5.40;;;;;;;-3.36;77.84;95453.50;4988012;28;20246;-72
2022/01/12 05:35:10;;;;;;;12.80;6.43;;;;;;;-3.38;78.77;95458.19;4986522;28;20226;-74
2022/01/12 05:37:39;;;;;;;13.77;7.00;;;;;;;-3.35;78.02;95469.16;4980899;28;20628;-73
2022/01/12 05:40:07;;;;;;;11.43;5.38;;;;;;;-3.38;76.37;95468.78;4981777;28;20700;-73
2022/01/12 05:42:34;;;;;;;10.45;6.03;;;;;;;-3.52;77.04;95462.81;4987852;28;20217;-73
2022/01/12 05:45:01;;;;;;;11.60;6.05;;;;;;;-3.44;78.15;95472.34;4987724;28;20233;-73
2022/01/12 05:47:40;;;;;;;12.27;6.55;;;;;;;-3.54;78.00;95474.66;4987688;28;20234;-75
2022/01/12 05:50:06;;;;;;;8.40;4.57;;;;;;;-3.58;77.26;95479.59;4986948;28;20237;-74
2022/01/12 05:52:33;;;;;;;12.38;6.40;;;;;;;-3.59;77.18;95481.44;4982577;28;20202;-74
2022/01/12 05:55:03;;;;;;;14.40;6.90;;;;;;;-3.65;77.71;95484.94;4979987;28;20203;-75
2022/01/12 05:57:30;;;;;;;5.57;2.85;;;;;;;-3.60;76.78;95490.41;4987285;28;20209;-75
2022/01/12 05:59:56;;;;;;;6.30;2.20;;;;;;;-3.64;76.83;95486.56;4983896;28;20224;-75
2022/01/12 06:02:23;;;;;;;2.85;1.58;;;;;;;-3.68;78.04;95490.66;4994042;28;20213;-73
2022/01/12 06:04:51;;;;;;;5.30;2.05;;;;;;;-3.68;78.36;95501.25;4990416;28;20226;-75
2022/01/12 06:07:17;;;;;;;7.65;2.88;;;;;;;-3.65;78.81;95495.53;4983915;28;20202;-75
2022/01/12 06:09:44;;;;;;;9.40;4.13;;;;;;;-3.58;77.20;95506.88;4979632;28;20209;-74
2022/01/12 06:12:13;;;;;;;6.80;2.53;;;;;;;-3.44;78.42;95514.69;4983663;28;20198;-74
2022/01/12 06:14:41;;;;;;;6.75;2.92;;;;;;;-3.51;77.78;95527.19;4987287;28;20206;-75
2022/01/12 06:17:08;;;;;;;6.25;3.10;;;;;;;-3.47;77.00;95523.06;4984787;28;20208;-74
2022/01/12 06:19:36;;;;;;;4.80;2.95;;;;;;;-3.46;77.13;95524.69;4979837;28;20205;-74
2022/01/12 06:22:03;;;;;;;7.75;3.80;;;;;;;-3.40;78.23;95539.69;4993318;28;20198;-74
2022/01/12 06:24:29;;;;;;;7.60;2.83;;;;;;;-3.22;77.27;95537.91;4979884;28;20233;-74
2022/01/12 06:26:57;;;;;;;9.00;3.97;;;;;;;-3.00;77.50;95530.31;4981905;28;20321;-74
2022/01/12 06:29:38;;;;;;;6.50;3.15;;;;;;;-2.79;77.29;95538.88;4988552;28;20233;-74
2022/01/12 06:32:06;;;;;;;8.65;4.10;;;;;;;-2.65;76.29;95538.50;4986799;28;20738;-75
2022/01/12 06:34:33;;;;;;;7.85;3.53;;;;;;;-2.23;75.54;95531.41;4985786;28;20222;-74
2022/01/12 06:37:00;;;;;;;7.07;3.75;;;;;;;-1.82;73.69;95548.38;4986506;28;20596;-73
2022/01/12 06:39:27;;;;;;;5.88;2.85;;;;;;;-1.61;73.52;95534.56;4980941;28;20217;-73
2022/01/12 06:41:57;;;;;;;7.93;3.35;;;;;;;-1.37;72.38;95545.22;4979934;28;20677;-76
2022/01/12 06:44:26;;;;;;;6.97;3.42;;;;;;;-1.08;70.29;95544.28;4984638;28;20210;-73
2022/01/12 06:46:56;;;;;;;7.40;3.25;;;;;;;-1.11;69.73;95555.38;4986651;28;20209;-75
2022/01/12 06:49:23;;;;;;;11.13;4.20;;;;;;;-1.08;70.49;95549.59;4982883;28;20261;-75
2022/01/12 06:51:53;;;;;;;10.40;4.10;;;;;;;-1.03;70.67;95552.38;4979205;28;20221;-74
2022/01/12 06:54:20;;;;;;;7.07;3.20;;;;;;;-0.90;69.57;95530.84;4992589;28;20665;-73
2022/01/12 06:56:47;;;;;;;8.07;3.85;;;;;;;-1.08;69.22;95560.22;4989400;28;20210;-73
2022/01/12 06:59:14;;;;;;;11.25;4.32;;;;;;;-1.11;70.61;95555.38;4982783;28;20266;-73
2022/01/12 07:01:42;;;;;;;7.30;3.83;;;;;;;-1.61;70.69;95566.44;4992479;28;20197;-73
2022/01/12 07:04:09;;;;;;;10.93;3.20;;;;;;;-1.26;68.98;95563.00;4981867;28;20234;-74
2022/01/12 07:06:36;;;;;;;3.22;1.85;;;;;;;-1.46;69.18;95580.09;4986005;28;20238;-74
2022/01/12 07:09:04;;;;;;;4.00;2.60;;;;;;;-1.74;70.17;95576.44;4983786;28;20218;-75
2022/01/12 07:11:30;;;;;;;5.35;3.05;;;;;;;-1.71;70.26;95587.44;4979647;28;20201;-75
2022/01/12 07:13:58;;;;;;;6.40;3.20;;;;;;;-1.57;71.67;95582.72;4980883;28;20203;-73
2022/01/12 07:16:25;;;;;;;8.00;3.33;;;;;;;-1.85;71.41;95581.50;4986330;28;20602;-73
2022/01/12 07:18:59;;;;;;;6.72;3.55;;;;;;;-1.65;72.15;95591.84;4984207;28;20209;-73
2022/01/12 07:21:26;;;;;;;8.20;3.58;;;;;;;-1.22;70.32;95585.41;4978567;28;20198;-73
2022/01/12 07:23:54;;;;;;;5.47;2.53;;;;;;;-2.17;69.94;95594.19;4992506;28;20240;-71
2022/01/12 07:26:22;;;;;;;2.63;1.80;;;;;;;-2.69;71.94;95605.44;4992174;28;20237;-73
2022/01/12 07:28:48;;;;;;;2.10;1.65;;;;;;;-3.03;72.09;95604.97;4992016;28;20217;-73
2022/01/12 07:31:15;;;;;;;6.53;1.98;;;;;;;-2.92;72.37;95611.41;4978500;28;20211;-73
2022/01/12 07:33:42;;;;;;;5.97;2.78;;;;;;;-2.94;72.76;95603.66;4978266;28;20221;-73
2022/01/12 07:36:11;;;;;;;1.80;0.90;;;;;;;-2.92;72.79;95614.84;4979641;28;20237;-73
2022/01/12 07:38:37;;;;;;;7.07;3.28;;;;;;;-2.69;75.12;95616.03;4991992;28;20664;-74
2022/01/12 07:41:05;;;;;;;7.53;3.35;;;;;;;-2.71;72.13;95621.56;4979903;28;20225;-74
2022/01/12 07:43:32;;;;;;;6.13;2.92;;;;;;;-2.51;73.55;95618.69;4991988;28;20605;-74
2022/01/12 07:45:58;;;;;;;3.85;1.33;;;;;;;-2.69;72.26;95613.38;4985078;28;20624;-74
2022/01/12 07:48:26;;;;;;;5.07;2.72;;;;;;;-2.51;72.79;95613.41;4985503;28;20248;-73
2022/01/12 07:50:57;;;;;;;4.97;1.92;;;;;;;-2.23;71.25;95616.31;4980260;28;20683;-74
2022/01/12 07:53:25;;;;;;;4.85;2.92;;;;;;;-2.18;72.60;95621.75;4978502;28;20605;-74
2022/01/12 07:55:52;;;;;;;6.47;2.90;;;;;;;-2.20;69.86;95613.22;4983530;28;20545;-74
2022/01/12 07:58:19;;;;;;;6.68;3.20;;;;;;;-2.71;71.98;95626.06;4987265;28;20213;-73
2022/01/12 08:00:46;;;;;;;4.72;2.22;;;;;;;-2.63;70.98;95625.78;4991457;28;20205;-74
2022/01/12 08:03:14;;;;;;;9.10;4.47;;;;;;;-2.60;70.75;95635.94;4988386;28;20214;-74
2022/01/12 08:05:43;;;;;;;3.40;1.92;;;;;;;-2.83;71.70;95641.06;4981872;28;20593;-74
2022/01/12 08:08:11;;;;;;;4.90;2.40;;;;;;;-2.62;71.78;95643.31;4991092;28;20583;-74
2022/01/12 08:10:40;;;;;;;5.13;2.55;;;;;;;-2.48;70.81;95650.09;4992148;28;20284;-73
2022/01/12 08:13:08;;;;;;;5.05;2.42;;;;;;;-2.20;71.22;95642.41;4978437;28;20198;-72
2022/01/12 08:15:35;;;;;;;6.03;2.90;;;;;;;-2.34;68.82;95656.88;4980390;28;20210;-75
2022/01/12 08:18:02;;;;;;;4.25;1.88;;;;;;;-2.17;68.37;95659.72;4985194;28;20206;-75
2022/01/12 08:20:29;;;;;;;3.88;2.22;;;;;;;-2.37;68.54;95659.97;4983661;28;20217;-72
2022/01/12 08:22:57;;;;;;;4.57;2.38;;;;;;;-2.30;68.97;95651.91;4985750;28;20622;-74
2022/01/12 08:25:23;;;;;;;8.02;2.72;;;;;;;-2.40;69.44;95656.94;4984104;28;20232;-73
2022/01/12 08:27:52;;;;;;;2.88;1.95;;;;;;;-2.34;69.70;95651.56;4978450;28;20221;-74
2022/01/12 08:30:28;;;;;;;3.63;2.35;;;;;;;-2.38;68.34;95661.00;4978598;28;20213;-74
2022/01/12 08:32:56;;;;;;;2.90;1.30;;;;;;;-2.32;69.32;95653.97;4981571;28;20204;-74
2022/01/12 08:35:23;;;;;;;3.03;1.92;;;;;;;-2.34;69.81;95669.31;4982108;28;20233;-73
2022/01/12 08:37:50;;;;;;;2.25;1.52;;;;;;;-2.41;69.03;95671.22;4988150;28;20209;-72
2022/01/12 08:40:19;;;;;;;1.92;1.42;;;;;;;-2.36;68.59;95661.59;4988842;28;20319;-75
2022/01/12 08:42:46;;;;;;;2.90;1.65;;;;;;;-2.04;68.44;95661.41;4983983;28;20214;-74
2022/01/12 08:45:16;;;;;;;2.92;1.60;;;;;;;-2.10;67.67;95667.63;4982084;28;20233;-74
2022/01/12 08:47:43;;;;;;;3.45;1.52;;;;;;;-2.26;68.05;95659.22;4995400;28;20624;-74
2022/01/12 08:50:10;;;;;;;9.23;1.90;;;;;;;-2.20;68.23;95663.66;4995119;28;20253;-74
2022/01/12 08:52:39;;;;;;;3.97;2.55;;;;;;;-2.28;67.31;95671.91;4986282;28;20221;-74
2022/01/12 08:55:07;;;;;;;2.83;1.85;;;;;;;-2.55;69.34;95681.16;4988432;28;20304;-74
2022/01/12 08:57:34;;;;;;;3.83;2.38;;;;;;;-2.77;68.82;95669.38;4985541;28;20209;-74
2022/01/12 09:00:01;;;;;;;4.13;2.30;;;;;;;-2.74;68.06;95676.88;4994798;28;20661;-74
2022/01/12 09:02:29;;;;;;;4.60;2.30;;;;;;;-2.55;68.66;95670.56;4994451;28;20201;-74
2022/01/12 09:04:56;;;;;;;3.40;1.80;;;;;;;-2.36;69.30;95674.84;4982071;28;20209;-75
2022/01/12 09:07:24;;;;;;;0.45;0.45;;;;;;;-2.40;68.13;95663.06;4983589;28;20214;-74
2022/01/12 09:09:51;;;;;;;5.22;2.40;;;;;;;-2.42;68.01;95670.41;4988451;28;20229;-71
2022/01/12 09:12:17;;;;;;;4.15;2.28;;;;;;;-2.41;69.12;95666.75;4987520;28;20198;-73
2022/01/12 09:14:45;;;;;;;5.43;1.92;;;;;;;-2.18;69.21;95661.56;4981546;28;20661;-75
2022/01/12 09:17:18;;;;;;;5.28;2.20;;;;;;;-2.51;67.54;95667.25;4994749;28;20218;-73
2022/01/12 09:19:47;;;;;;;3.30;1.52;;;;;;;-2.21;68.55;95662.03;4981612;28;20206;-73
2022/01/12 09:22:14;;;;;;;2.25;1.42;;;;;;;-2.18;68.45;95655.44;4981768;28;20206;-73
2022/01/12 09:24:44;;;;;;;4.95;1.83;;;;;;;-2.35;67.74;95660.56;4987157;28;20206;-73
2022/01/12 09:27:11;;;;;;;3.00;1.40;;;;;;;-2.40;68.60;95670.19;4988248;28;20265;-73
2022/01/12 09:29:38;;;;;;;2.45;1.60;;;;;;;-2.38;69.02;95658.34;4982837;28;20210;-73
2022/01/12 09:32:05;;;;;;;2.03;1.20;;;;;;;-2.45;69.39;95654.94;4981259;28;20538;-73
2022/01/12 09:34:32;;;;;;;2.75;1.67;;;;;;;-2.54;70.09;95662.38;4993365;28;20233;-73
2022/01/12 09:37:00;;;;;;;2.13;1.40;;;;;;;-2.52;69.19;95672.78;4993360;28;20668;-75
2022/01/12 09:39:27;;;;;;;0.73;0.70;;;;;;;-2.24;69.39;95662.47;4985400;28;20708;-74
2022/01/12 09:41:54;;;;;;;1.10;1.00;;;;;;;-2.24;67.84;95662.47;4987842;28;20209;-75
2022/01/12 09:44:21;;;;;;;3.45;1.95;;;;;;;-2.26;68.48;95653.91;4983415;28;20205;-74
2022/01/12 09:46:48;;;;;;;3.60;1.92;;;;;;;-2.25;69.13;95654.72;4980862;28;20234;-74
2022/01/12 09:49:15;;;;;;;5.82;1.60;;;;;;;-2.29;68.96;95662.31;4993659;28;20241;-74
2022/01/12 09:51:42;;;;;;;1.83;1.63;;;;;;;-2.45;68.59;95649.63;4993368;28;20209;-74
2022/01/12 09:54:12;;;;;;;1.42;1.08;;;;;;;-2.31;69.32;95661.72;4994111;28;20206;-74
2022/01/12 09:56:39;;;;;;;4.25;2.10;;;;;;;-2.26;68.59;95659.22;4993108;28;20549;-74
2022/01/12 09:59:06;;;;;;;3.30;1.63;;;;;;;-2.46;69.86;95648.00;4993885;28;20459;-74
2022/01/12 10:01:34;;;;;;;2.08;1.40;;;;;;;-2.54;69.22;95661.56;4993346;28;20221;-75
2022/01/12 10:04:12;;;;;;;3.70;1.58;;;;;;;-2.63;68.41;95652.28;4993054;28;20221;-74
2022/01/12 10:06:41;;;;;;;4.75;1.48;;;;;;;-2.45;68.85;95660.25;4980102;28;20732;-72
2022/01/12 10:09:12;;;;;;;5.38;2.15;;;;;;;-2.49;70.01;95666.22;4981206;28;20219;-75
2022/01/12 10:11:40;;;;;;;2.15;1.23;;;;;;;-2.57;69.16;95667.31;4987498;28;20563;-73
2022/01/12 10:14:07;;;;;;;2.22;1.67;;;;;;;-2.37;68.12;95662.63;4987121;28;20210;-75
2022/01/12 10:16:34;;;;;;;2.00;0.90;;;;;;;-2.31;67.61;95672.31;4980196;28;20288;-74
2022/01/12 10:19:01;;;;;;;1.13;1.02;;;;;;;-2.19;69.49;95665.25;4992424;28;20202;-75
2022/01/12 10:21:30;;;;;;;1.58;1.13;;;;;;;-1.76;67.72;95663.50;4974657;28;20209;-75
2022/01/12 10:23:59;;;;;;;2.10;0.98;;;;;;;-1.74;66.94;95670.19;4987248;28;20202;-76
2022/01/12 10:26:37;;;;;;;2.10;1.23;;;;;;;-2.08;67.94;95661.06;4980916;28;20240;-75
2022/01/12 10:29:09;;;;;;;2.22;1.60;;;;;;;-1.81;67.72;95661.53;4979977;28;20233;-74
2022/01/12 10:31:54;;;;;;;1.63;1.17;;;;;;;-2.05;67.33;95673.06;4993355;28;20215;-74
2022/01/12 10:34:24;;;;;;;4.15;1.88;;;;;;;-2.07;67.99;95673.28;4987471;28;20600;-75
2022/01/12 10:36:52;;;;;;;2.60;1.42;;;;;;;-2.12;66.78;95665.19;4986614;28;20209;-75
2022/01/12 10:39:21;;;;;;;4.18;1.08;;;;;;;-2.03;68.80;95668.31;4980240;28;20210;-75
2022/01/12 10:41:59;;;;;;;3.53;1.75;;;;;;;-1.85;69.46;95650.53;4992912;28;20206;-75
2022/01/12 10:44:30;;;;;;;3.25;1.50;;;;;;;-2.04;66.72;95661.41;4982317;28;20213;-72
2022/01/12 10:47:08;;;;;;;3.92;2.15;;;;;;;-2.15;68.78;95655.81;4980125;28;20733;-74
2022/01/12 10:49:37;;;;;;;4.63;1.75;;;;;;;-2.33;67.91;95660.34;4981853;28;20245;-73
2022/01/12 10:52:06;;;;;;;2.15;1.38;;;;;;;-2.53;68.79;95652.59;4986969;28;20606;-71
2022/01/12 10:54:46;;;;;;;4.15;1.70;;;;;;;-2.25;68.35;95655.53;4984932;28;20206;-73
2022/01/12 10:57:23;;;;;;;2.75;1.48;;;;;;;-2.16;66.85;95651.53;4980233;28;20205;-74
2022/01/12 11:00:10;;;;;;;1.00;0.88;;;;;;;-2.34;67.77;95648.91;4992718;28;20206;-74
2022/01/12 11:02:39;;;;;;;3.10;1.67;;;;;;;-2.17;67.69;95657.88;4992847;28;20205;-73
2022/01/12 11:05:08;;;;;;;1.65;1.00;;;;;;;-2.09;67.35;95653.31;4992490;28;20209;-73
2022/01/12 11:07:36;;;;;;;1.15;0.93;;;;;;;-2.22;66.85;95656.94;4992131;28;20261;-74
2022/01/12 11:10:05;;;;;;;1.38;1.27;;;;;;;-2.19;66.58;95646.66;4979671;28;20201;-73
2022/01/12 11:12:35;;;;;;;3.60;1.45;;;;;;;-2.27;66.24;95646.16;4979337;28;20441;-72
2022/01/12 11:15:02;;;;;;;2.33;1.42;;;;;;;-2.17;67.72;95644.59;4980166;28;20284;-73
2022/01/12 11:17:29;;;;;;;11.57;4.78;;;;;;;-1.92;68.38;95651.66;4979553;28;20202;-75
2022/01/12 11:20:05;;;;;;;3.78;2.25;;;;;;;-2.12;64.88;95654.56;4985555;28;20662;-71
2022/01/12 11:22:42;;;;;;;3.38;1.70;;;;;;;-2.18;66.76;95647.47;4975659;28;20202;-72
2022/01/12 11:25:18;;;;;;;2.88;1.70;;;;;;;-1.95;66.52;95657.41;4982234;28;20224;-74
2022/01/12 11:27:51;;;;;;;2.45;1.40;;;;;;;-1.96;65.25;95658.44;4985554;28;20644;-74
2022/01/12 11:30:20;;;;;;;1.90;1.40;;;;;;;-2.02;65.97;95660.16;4985768;28;20208;-74
2022/01/12 11:32:56;;;;;;;0.63;0.60;;;;;;;-2.04;64.35;95656.09;4979228;28;20214;-75
2022/01/12 11:35:27;;;;;;;1.85;1.20;;;;;;;-2.12;65.96;95659.06;4992162;28;20692;-74
2022/01/12 11:37:57;;;;;;;1.73;1.00;;;;;;;-2.25;65.54;95655.53;4983680;28;20654;-74
2022/01/12 11:40:33;;;;;;;1.98;1.05;;;;;;;-2.27;66.74;95662.91;4985738;28;20256;-73
2022/01/12 11:43:02;;;;;;;2.05;1.48;;;;;;;-2.07;66.77;95661.88;4981894;28;20568;-73
2022/01/12 11:45:29;;;;;;;1.73;1.60;;;;;;;-1.97;66.62;95670.09;4978986;28;20704;-74
2022/01/12 11:47:56;;;;;;;4.72;2.38;;;;;;;-1.90;66.43;95665.50;4981864;28;20234;-75
2022/01/12 11:50:23;;;;;;;1.25;0.85;;;;;;;-1.79;65.57;95675.41;4989099;28;20281;-73
2022/01/12 11:52:50;;;;;;;1.50;0.90;;;;;;;-1.99;66.45;95672.16;4992228;28;20213;-74
2022/01/12 11:55:20;;;;;;;1.02;0.80;;;;;;;-2.07;65.76;95667.19;4978960;28;20198;-74
2022/01/12 11:57:49;;;;;;;2.15;1.20;;;;;;;-2.11;66.32;95673.94;4981393;28;20604;-75
2022/01/12 12:00:19;;;;;;;1.17;0.95;;;;;;;-2.08;66.55;95671.66;4990960;28;20232;-74
2022/01/12 12:02:47;;;;;;;2.10;1.45;;;;;;;-2.16;64.87;95672.78;4992398;28;20194;-74
2022/01/12 12:05:17;;;;;;;1.52;1.10;;;;;;;-2.18;65.33;95661.56;4978800;28;20206;-75
2022/01/12 12:07:46;;;;;;;4.60;1.40;;;;;;;-1.88;65.96;95674.88;4979044;28;20230;-74
2022/01/12 12:10:15;;;;;;;4.05;1.88;;;;;;;-1.94;65.65;95677.63;4978352;28;20645;-73
2022/01/12 12:12:42;;;;;;;0.40;0.40;;;;;;;-1.91;63.81;95669.19;4990805;28;20232;-74
2022/01/12 12:15:12;;;;;;;1.23;0.98;;;;;;;-1.77;65.69;95675.94;4979411;28;20205;-76
2022/01/12 12:17:41;;;;;;;4.95;1.98;;;;;;;-1.36;65.05;95679.69;4978824;28;20220;-75
2022/01/12 12:20:11;;;;;;;3.47;2.38;;;;;;;-0.90;64.97;95674.44;4983142;28;20203;-76
2022/01/12 12:22:40;;;;;;;2.05;1.15;;;;;;;-0.82;63.22;95676.75;4983138;28;20249;-74
2022/01/12 12:25:11;;;;;;;2.80;1.75;;;;;;;-0.82;63.74;95660.81;4985351;28;20265;-75
2022/01/12 12:27:39;;;;;;;3.70;1.85;;;;;;;-0.21;63.58;95662.16;4997895;28;20229;-76
2022/01/12 12:30:09;;;;;;;4.10;1.98;;;;;;;-0.10;61.57;95656.00;4985331;28;20209;-75
2022/01/12 12:32:38;;;;;;;3.05;1.80;;;;;;;0.25;60.40;95660.41;4983050;28;20209;-75
2022/01/12 12:35:10;;;;;;;3.92;1.90;;;;;;;-0.24;59.84;95673.28;4987971;28;20320;-74
2022/01/12 12:37:39;;;;;;;0.80;0.80;;;;;;;-1.01;60.18;95667.28;4984699;28;20194;-75